createdAt,value
2019-03-05T11:13:34.109Z,17.80
2019-03-05T11:36:45.334Z,23.30
2019-03-05T11:42:13.788Z,23.70
2019-03-05T12:00:19.961Z,20.90
2019-03-05T12:02:48.957Z,21.70
2019-03-05T12:05:17.764Z,21.70
2019-03-05T12:07:46.662Z,23.70
2019-03-05T12:10:21.997Z,25.10
2019-03-05T12:12:51.035Z,23.60
2019-03-05T12:22:53.640Z,23.40
2019-03-05T12:27:06.361Z,24.70
2019-03-05T12:31:09.622Z,24.90
2019-03-05T12:33:39.916Z,24.10
2019-03-05T12:36:10.147Z,23.90
2019-03-05T12:38:40.373Z,23.60
2019-03-05T12:41:10.598Z,23.30
2019-03-05T12:45:26.491Z,22.90
2019-03-05T12:47:56.827Z,22.70
2019-03-05T12:50:29.855Z,22.50
2019-03-05T12:53:00.178Z,22.30
2019-03-05T12:55:30.688Z,22.20
2019-03-05T12:58:00.936Z,22.10
2019-03-05T13:00:33.185Z,22.00
2019-03-05T13:03:03.939Z,21.90
2019-03-05T13:08:59.135Z,22.10
2019-03-05T13:11:29.457Z,22.00
2019-03-05T13:14:07.283Z,21.90
2019-03-05T13:16:35.259Z,21.80
2019-03-05T13:19:05.374Z,21.70
2019-03-05T13:21:34.997Z,21.70
2019-03-05T13:24:05.303Z,21.60
2019-03-05T13:26:35.619Z,21.60
2019-03-05T13:29:05.858Z,21.50
2019-03-05T13:31:38.740Z,21.50
2019-03-05T13:34:08.115Z,21.50
2019-03-05T13:39:08.307Z,21.30
2019-03-05T13:41:40.144Z,21.30
2019-03-05T13:44:27.899Z,21.30
2019-03-05T13:47:00.923Z,21.30
2019-03-05T13:49:42.348Z,21.20
2019-03-05T13:52:35.952Z,21.10
2019-03-05T13:55:28.013Z,21.20
2019-03-05T14:00:33.260Z,21.10
2019-03-05T14:03:15.367Z,21.10
2019-03-05T14:05:54.591Z,21.10
2019-03-05T14:08:36.430Z,21.10
2019-03-05T14:11:06.744Z,21.10
2019-03-05T14:13:37.045Z,21.00
2019-03-05T14:16:09.047Z,21.00
2019-03-05T14:33:38.228Z,20.80
2019-03-05T14:51:08.209Z,20.80
2019-03-05T15:01:08.112Z,20.80
2019-03-05T15:11:08.076Z,20.70
2019-03-05T15:16:08.287Z,20.70
2019-03-05T15:28:37.956Z,20.80
2019-03-05T15:36:07.908Z,20.90
2019-03-05T15:38:38.236Z,20.90
2019-03-05T15:41:08.562Z,20.90
2019-03-05T15:43:38.872Z,20.90
2019-03-05T15:46:09.206Z,20.90
2019-03-05T15:48:39.512Z,21.00
2019-03-05T15:51:09.778Z,21.00
2019-03-05T15:56:09.961Z,21.00
2019-03-05T15:58:40.208Z,21.00
2019-03-05T16:01:18.749Z,21.00
2019-03-05T16:03:42.756Z,21.00
2019-03-05T16:06:14.046Z,21.00
2019-03-05T16:08:44.616Z,21.00
2019-03-05T16:11:14.862Z,21.00
2019-03-05T16:13:45.512Z,21.10
2019-03-05T16:16:18.358Z,21.00
2019-03-05T16:21:17.569Z,21.10
2019-03-05T16:23:47.875Z,21.00
2019-03-05T16:26:18.691Z,21.10
2019-03-05T16:34:00.572Z,21.10
2019-03-05T16:36:32.449Z,21.00
2019-03-05T16:39:10.543Z,21.10
2019-03-05T16:41:59.497Z,21.00
2019-03-05T16:44:35.938Z,21.10
2019-03-05T16:47:23.680Z,21.00
2019-03-05T16:52:45.025Z,21.00
2019-03-05T16:55:19.480Z,21.00
2019-03-05T16:57:54.351Z,21.00
2019-03-05T17:05:46.731Z,21.00
2019-03-05T17:11:04.928Z,21.00
2019-03-05T17:13:35.254Z,21.00
2019-03-05T17:16:05.568Z,21.00
2019-03-05T17:28:35.607Z,21.00
2019-03-05T17:31:06.552Z,21.00
2019-03-05T17:33:36.875Z,21.00
2019-03-05T17:36:07.299Z,21.00
2019-03-05T17:38:37.636Z,21.00
2019-03-05T17:41:08.565Z,21.00
2019-03-05T17:43:39.083Z,21.00
2019-03-05T17:46:09.902Z,21.00
2019-03-05T17:48:40.149Z,21.00
2019-03-05T17:53:40.456Z,21.00
2019-03-05T17:56:11.140Z,21.00
2019-03-05T17:58:41.459Z,21.00
2019-03-05T18:01:11.853Z,21.00
2019-03-05T18:03:42.439Z,21.00
2019-03-05T18:06:12.758Z,21.00
2019-03-05T18:08:43.016Z,21.00
2019-03-05T18:11:13.846Z,20.90
2019-03-05T18:13:44.352Z,20.90
2019-03-05T18:16:14.660Z,20.90
2019-03-05T18:18:44.967Z,20.90
2019-03-05T18:21:15.280Z,20.90
2019-03-05T18:23:45.593Z,21.00
2019-03-05T18:26:15.908Z,21.00
2019-03-05T18:28:46.222Z,21.00
2019-03-05T18:31:16.523Z,21.00
2019-03-05T18:38:46.468Z,21.00
2019-03-05T18:41:16.864Z,21.10
2019-03-05T18:43:47.343Z,21.10
2019-03-05T18:46:17.647Z,21.10
2019-03-05T18:48:48.288Z,21.10
2019-03-05T18:51:18.955Z,21.20
2019-03-05T18:58:50.295Z,21.20
2019-03-05T19:03:50.332Z,21.20
2019-03-05T19:06:20.595Z,21.30
2019-03-05T19:11:20.620Z,21.20
2019-03-05T19:13:50.959Z,21.20
2019-03-05T19:16:22.368Z,21.20
2019-03-05T19:18:52.612Z,21.20
2019-03-05T19:21:22.842Z,21.20
2019-03-05T19:28:53.391Z,21.20
2019-03-05T19:31:23.739Z,21.10
2019-03-05T19:33:54.060Z,21.10
2019-03-05T19:36:24.384Z,21.10
2019-03-05T19:38:54.619Z,21.00
2019-03-05T19:41:24.920Z,21.00
2019-03-05T19:43:55.216Z,21.00
2019-03-05T19:48:55.324Z,20.90
2019-03-05T19:51:25.570Z,20.90
2019-03-05T19:53:55.794Z,20.90
2019-03-05T19:56:27.084Z,20.90
2019-03-05T19:58:57.305Z,20.90
2019-03-05T20:01:29.168Z,20.90
2019-03-05T20:03:59.538Z,20.80
2019-03-05T20:06:30.083Z,20.80
2019-03-05T20:09:00.321Z,20.80
2019-03-05T20:11:30.535Z,20.70
2019-03-05T20:19:00.358Z,20.70
2019-03-05T20:21:30.575Z,20.70
2019-03-05T20:26:30.731Z,20.70
2019-03-05T20:29:02.274Z,20.60
2019-03-05T20:31:33.761Z,20.60
2019-03-05T20:34:03.980Z,20.60
2019-03-05T20:36:34.259Z,20.60
2019-03-05T20:44:06.768Z,20.50
2019-03-05T20:46:37.053Z,20.60
2019-03-05T20:49:07.331Z,20.50
2019-03-05T20:51:37.619Z,20.50
2019-03-05T20:54:08.200Z,20.50
2019-03-05T21:01:36.987Z,20.40
2019-03-05T21:04:08.043Z,20.40
2019-03-05T21:09:14.640Z,20.40
2019-03-05T21:11:45.852Z,20.40
2019-03-05T21:14:16.542Z,20.40
2019-03-05T21:19:16.536Z,20.30
2019-03-05T21:24:16.672Z,20.30
2019-03-05T21:26:46.975Z,20.30
2019-03-05T21:31:47.038Z,20.30
2019-03-05T21:36:47.958Z,20.30
2019-03-05T21:39:18.237Z,20.30
2019-03-05T21:41:48.891Z,20.20
2019-03-05T21:46:48.396Z,20.20
2019-03-05T21:49:18.613Z,20.20
2019-03-05T21:51:48.820Z,20.20
2019-03-05T21:54:19.104Z,20.20
2019-03-05T21:56:49.383Z,20.20
2019-03-05T21:59:19.407Z,20.20
2019-03-05T22:01:49.059Z,20.10
2019-03-05T22:04:18.712Z,20.10
2019-03-05T22:06:49.000Z,20.10
2019-03-05T22:09:19.293Z,20.10
2019-03-05T22:11:49.235Z,20.10
2019-03-05T22:14:19.521Z,20.00
2019-03-05T22:16:49.249Z,20.00
2019-03-05T22:19:19.466Z,20.00
2019-03-05T22:21:49.744Z,20.00
2019-03-05T22:24:19.467Z,20.00
2019-03-05T22:26:49.125Z,20.00
2019-03-05T22:29:19.416Z,20.00
2019-03-05T22:31:49.144Z,20.00
2019-03-05T22:34:19.248Z,19.90
2019-03-05T22:36:48.899Z,20.00
2019-03-05T22:39:18.631Z,19.90
2019-03-05T22:41:48.655Z,19.90
2019-03-05T22:44:18.318Z,19.90
2019-03-05T22:46:47.963Z,19.90
2019-03-05T22:49:17.691Z,19.90
2019-03-05T22:51:47.340Z,19.90
2019-03-05T22:54:16.996Z,19.90
2019-03-05T22:56:46.715Z,19.80
2019-03-05T22:59:16.398Z,19.80
2019-03-05T23:01:46.213Z,19.80
2019-03-05T23:04:16.607Z,19.80
2019-03-05T23:06:46.544Z,19.80
2019-03-05T23:09:17.112Z,19.80
2019-03-05T23:14:16.481Z,19.70
2019-03-05T23:16:46.599Z,19.70
2019-03-05T23:19:17.599Z,19.70
2019-03-05T23:21:47.403Z,19.70
2019-03-05T23:24:17.127Z,19.70
2019-03-05T23:26:47.411Z,19.70
2019-03-05T23:29:18.416Z,19.70
2019-03-05T23:31:48.448Z,19.70
2019-03-05T23:34:18.625Z,19.70
2019-03-05T23:36:49.699Z,19.70
2019-03-05T23:39:19.555Z,19.70
2019-03-05T23:41:49.280Z,19.60
2019-03-05T23:44:18.936Z,19.60
2019-03-05T23:46:48.605Z,19.60
2019-03-05T23:49:18.247Z,19.60
2019-03-05T23:51:47.908Z,19.60
2019-03-05T23:54:17.554Z,19.60
2019-03-05T23:56:47.207Z,19.60
2019-03-05T23:59:16.859Z,19.60
